Main page
Satellite images 15-day forecastsClimateMarine weather Cyclones Lightning AirportsFAQ Newsletter About
Weather : Europe Africa North America South America Asia Australia-Oceania Others
Languages Contact

Maputo, Mozambique

Mavalane

latitude: 25-55S, longitude: 032-34E, elevation: 39 m


METAR: FQMA 280300Z 02012KT CAVOK 17/08 Q1012
short-TAF: out of date (7448 hours)
long-TAF: FQMA 272200Z 2800/2906 05013KT CAVOK FM280000 01013KT CAVOK

Time: 07:04 (05:04 UTC)

Current weather observation

The report was made 2 hours and 4 minutes ago, at 03:00 UTC  
Wind 12 kt from the North/Northeast
Temperature 17°C
Humidity 55%
Pressure 1012 hPa
Visibility 10 km or more
no clouds below 1500 m and no cumulonimbus

Change units

Forecast

The report was made 2 hours and 7 minutes ago, at 02:57 UTC  
Forecast valid from 28 at 00 UTC to 29 at 06 UTC
Wind 13 kt from the Northeast
Visibility 10 km or more
no clouds below 1500 m and no cumulonimbus
From 28 at 0000 UTC
Wind 13 kt from the North
Visibility 10 km or more
no clouds below 1500 m and no cumulonimbus
The information on this site is subject to a disclaimer
Weather : Europe Africa North America South America Asia Australia-Oceania Others
Satellite images 15-day forecastsClimateMarine weather Cyclones Lightning AirportsFAQ Languages Contact Newsletter About